Time;durP1;ratioP1;P1;durP2;ratioP2;P2;SDS_P1;SDS_P2;PMS_P1;PMS_P2;Temp;Humidity;BMP_temperature;BMP_pressure;BME280_temperature;BME280_humidity;BME280_pressure;Samples;Min_cycle;Max_cycle;Signal;HPM_P1;HPM_P2
2023/02/08 00:00:34;;;;;;;17.63;9.67;;;-3.40;76.30;;;;;;5028389;28;20208;-65
2023/02/08 00:02:59;;;;;;;22.60;9.43;;;-3.40;74.70;;;;;;5023975;28;20948;-61
2023/02/08 00:05:25;;;;;;;22.73;10.60;;;-3.40;74.60;;;;;;5028296;28;20185;-60
2023/02/08 00:07:50;;;;;;;23.60;10.50;;;-3.40;75.10;;;;;;5028743;28;20196;-59
2023/02/08 00:10:16;;;;;;;19.33;9.17;;;-3.40;75.10;;;;;;5025163;28;20258;-62
2023/02/08 00:12:42;;;;;;;17.70;9.80;;;-3.40;74.20;;;;;;5023462;28;20193;-63
2023/02/08 00:15:08;;;;;;;18.43;10.17;;;-3.40;73.40;;;;;;5028605;28;21148;-59
2023/02/08 00:17:33;;;;;;;22.83;11.27;;;-3.40;73.10;;;;;;5026993;28;20180;-60
2023/02/08 00:19:59;;;;;;;19.90;9.77;;;-3.40;71.90;;;;;;5028333;28;21670;-62
2023/02/08 00:22:25;;;;;;;22.53;10.63;;;-3.50;72.50;;;;;;5024905;28;20189;-64
2023/02/08 00:24:50;;;;;;;19.50;10.03;;;-3.50;72.60;;;;;;5026535;28;20181;-59
2023/02/08 00:27:17;;;;;;;23.27;9.90;;;-3.50;72.60;;;;;;5028260;28;20721;-59
2023/02/08 00:29:42;;;;;;;20.07;9.53;;;-3.50;72.20;;;;;;5024586;28;20240;-59
2023/02/08 00:32:09;;;;;;;21.70;11.40;;;-3.50;72.10;;;;;;5024788;28;20432;-59
2023/02/08 00:34:35;;;;;;;21.20;10.10;;;-3.50;72.30;;;;;;5027628;28;20213;-60
2023/02/08 00:37:01;;;;;;;20.80;10.00;;;-3.50;72.60;;;;;;5027822;28;20413;-60
2023/02/08 00:39:26;;;;;;;22.30;9.90;;;-3.60;72.50;;;;;;5023800;28;20554;-59
2023/02/08 00:41:52;;;;;;;17.00;9.57;;;-3.60;72.20;;;;;;5024553;28;20183;-60
2023/02/08 00:44:18;;;;;;;19.73;10.90;;;-3.60;72.50;;;;;;5021606;28;20205;-63
2023/02/08 00:46:43;;;;;;;22.77;10.50;;;-3.60;72.20;;;;;;5024508;28;20199;-61
2023/02/08 00:49:09;;;;;;;22.10;11.13;;;-3.70;72.20;;;;;;5026674;28;20346;-61
2023/02/08 00:51:34;;;;;;;18.00;10.17;;;-3.70;73.30;;;;;;5029802;28;20259;-62
2023/02/08 00:54:00;;;;;;;21.73;10.40;;;-3.70;74.30;;;;;;5028124;28;20678;-61
2023/02/08 00:56:25;;;;;;;27.13;10.47;;;-3.80;74.40;;;;;;5027084;28;20186;-60
2023/02/08 00:58:51;;;;;;;24.53;10.90;;;-3.80;74.70;;;;;;5029841;28;20652;-61
2023/02/08 01:01:17;;;;;;;20.80;10.33;;;-3.80;74.80;;;;;;5029504;28;20188;-59
2023/02/08 01:03:43;;;;;;;19.10;9.80;;;-3.80;75.50;;;;;;5030455;28;20603;-60
2023/02/08 01:06:15;;;;;;;15.83;9.00;;;-3.80;76.70;;;;;;5031060;28;20177;-60
2023/02/08 01:08:41;;;;;;;21.90;10.33;;;-3.90;76.80;;;;;;5025874;28;20483;-61
2023/02/08 01:11:17;;;;;;;23.50;10.13;;;-3.90;76.80;;;;;;5029717;28;20428;-60
2023/02/08 01:13:43;;;;;;;24.40;11.60;;;-3.90;76.80;;;;;;5028426;28;20204;-61
2023/02/08 01:16:10;;;;;;;19.57;9.70;;;-3.90;77.50;;;;;;5031349;28;20440;-63
2023/02/08 01:18:37;;;;;;;19.83;9.87;;;-3.90;77.80;;;;;;5030443;28;20426;-61
2023/02/08 01:21:09;;;;;;;17.43;9.67;;;-4.00;76.80;;;;;;5033331;28;20519;-61
2023/02/08 01:23:35;;;;;;;20.57;8.93;;;-4.00;76.60;;;;;;5027267;28;20453;-60
2023/02/08 01:26:01;;;;;;;21.00;11.13;;;-4.00;76.60;;;;;;5027168;28;20519;-59
2023/02/08 01:28:26;;;;;;;20.13;10.47;;;-4.00;76.00;;;;;;5029811;28;20613;-59
2023/02/08 01:30:52;;;;;;;18.60;9.63;;;-4.00;75.70;;;;;;5028231;28;20183;-60
2023/02/08 01:33:17;;;;;;;18.90;10.30;;;-4.10;76.10;;;;;;5030913;28;20220;-60
2023/02/08 01:35:43;;;;;;;19.60;10.13;;;-4.10;76.20;;;;;;5024694;28;20176;-60
2023/02/08 01:38:09;;;;;;;20.27;9.10;;;-4.10;76.40;;;;;;5029557;28;20209;-60
2023/02/08 01:40:34;;;;;;;23.33;10.07;;;-4.20;76.20;;;;;;5026983;28;20196;-60
2023/02/08 01:43:00;;;;;;;21.63;9.10;;;-4.20;75.10;;;;;;5030743;28;20202;-62
2023/02/08 01:45:30;;;;;;;18.00;9.27;;;-4.10;74.30;;;;;;5027121;28;20177;-59
2023/02/08 01:48:11;;;;;;;18.93;8.50;;;-4.10;73.00;;;;;;5029582;28;20296;-62
2023/02/08 01:51:00;;;;;;;20.50;8.77;;;-4.10;72.40;;;;;;5028069;28;21019;-59
2023/02/08 01:53:28;;;;;;;14.23;7.83;;;-4.10;71.70;;;;;;5029297;28;20463;-60
2023/02/08 01:55:59;;;;;;;20.23;8.90;;;-4.10;71.10;;;;;;5029793;28;20524;-59
2023/02/08 01:58:27;;;;;;;19.83;8.67;;;-4.10;70.90;;;;;;5029086;28;20433;-60
2023/02/08 02:00:53;;;;;;;20.23;8.17;;;-4.00;69.80;;;;;;5030424;28;20446;-61
2023/02/08 02:03:20;;;;;;;16.33;8.87;;;-4.10;70.50;;;;;;5028408;28;20910;-60
2023/02/08 02:05:53;;;;;;;17.43;8.03;;;-4.00;70.30;;;;;;5028447;28;20433;-60
2023/02/08 02:08:18;;;;;;;18.40;9.40;;;-4.00;69.70;;;;;;5025916;28;20559;-62
2023/02/08 02:10:47;;;;;;;17.13;8.27;;;-4.00;69.10;;;;;;5027743;28;20522;-59
2023/02/08 02:13:16;;;;;;;17.60;8.10;;;-4.10;68.40;;;;;;5032390;28;20315;-59
2023/02/08 02:15:43;;;;;;;17.43;8.30;;;-4.10;67.70;;;;;;5024309;28;20517;-62
2023/02/08 02:18:10;;;;;;;15.33;8.00;;;-4.10;66.00;;;;;;5027233;28;21073;-62
2023/02/08 02:20:59;;;;;;;13.60;7.70;;;-4.10;65.20;;;;;;5027548;28;20825;-60
2023/02/08 02:23:48;;;;;;;15.90;8.10;;;-4.20;64.40;;;;;;5027964;28;20459;-60
2023/02/08 02:26:34;;;;;;;14.40;7.23;;;-4.20;64.20;;;;;;5024873;28;20538;-61
2023/02/08 02:29:35;;;;;;;12.90;7.30;;;-4.20;63.80;;;;;;5029877;28;20468;-60
2023/02/08 02:32:03;;;;;;;14.70;7.07;;;-4.20;64.70;;;;;;5021726;28;20448;-60
2023/02/08 02:34:47;;;;;;;21.60;8.33;;;-4.20;64.70;;;;;;5027936;28;20546;-61
2023/02/08 02:37:15;;;;;;;19.13;8.50;;;-4.20;64.20;;;;;;5027585;28;20513;-60
2023/02/08 02:39:49;;;;;;;13.53;7.60;;;-4.20;63.60;;;;;;5033035;28;20421;-59
2023/02/08 02:45:51;;;;;;;12.20;6.67;;;-4.20;62.30;;;;;;5030759;28;21050;-60
2023/02/08 02:48:26;;;;;;;16.10;7.07;;;-4.20;62.20;;;;;;5027189;28;21023;-60
2023/02/08 02:51:10;;;;;;;17.03;7.17;;;-4.20;61.60;;;;;;5025359;28;20521;-60
2023/02/08 02:53:54;;;;;;;12.63;6.90;;;-4.20;61.50;;;;;;5026640;28;20448;-61
2023/02/08 02:56:36;;;;;;;19.73;7.30;;;-4.10;60.50;;;;;;5028291;28;20427;-60
2023/02/08 02:59:06;;;;;;;13.00;7.23;;;-4.10;60.00;;;;;;5027213;28;20436;-62
2023/02/08 03:01:32;;;;;;;14.30;7.33;;;-4.10;59.80;;;;;;5025201;28;20863;-62
2023/02/08 03:03:57;;;;;;;13.53;6.63;;;-4.10;59.70;;;;;;5028952;28;21015;-61
2023/02/08 03:06:52;;;;;;;12.17;7.50;;;-4.10;60.30;;;;;;5027700;28;20449;-61
2023/02/08 03:09:48;;;;;;;16.20;7.43;;;-4.10;59.60;;;;;;5041599;28;20463;-60
2023/02/08 03:12:26;;;;;;;17.90;7.73;;;-4.10;59.10;;;;;;5028523;28;20436;-61
2023/02/08 03:15:19;;;;;;;13.87;6.57;;;-4.20;59.20;;;;;;5028065;28;20466;-62
2023/02/08 03:18:03;;;;;;;16.73;6.93;;;-4.20;58.90;;;;;;5024553;28;20432;-59
2023/02/08 03:20:36;;;;;;;11.27;7.13;;;-4.10;59.30;;;;;;5029155;28;20451;-59
2023/02/08 03:23:05;;;;;;;12.70;7.13;;;-4.20;59.40;;;;;;5024337;28;20461;-60
2023/02/08 03:25:50;;;;;;;16.87;7.90;;;-4.20;59.20;;;;;;5028446;28;20549;-64
2023/02/08 03:28:16;;;;;;;15.90;7.23;;;-4.20;59.40;;;;;;5028891;28;20459;-61
2023/02/08 03:31:01;;;;;;;11.93;7.40;;;-4.20;59.40;;;;;;5024046;28;20445;-59
2023/02/08 03:33:38;;;;;;;18.63;9.13;;;-4.10;59.10;;;;;;5024422;28;20651;-61
2023/02/08 03:36:28;;;;;;;16.23;8.20;;;-4.10;59.00;;;;;;5025676;28;20489;-62
2023/02/08 03:38:55;;;;;;;12.30;7.20;;;-4.10;59.20;;;;;;5025905;28;20459;-63
2023/02/08 03:41:29;;;;;;;16.00;7.07;;;-4.00;59.50;;;;;;5021793;28;20522;-62
2023/02/08 03:44:10;;;;;;;15.60;7.60;;;-4.00;59.60;;;;;;5024056;28;20469;-60
2023/02/08 03:46:43;;;;;;;16.70;9.00;;;-4.10;59.10;;;;;;5025619;28;20436;-59
2023/02/08 03:49:20;;;;;;;16.53;7.07;;;-4.10;58.90;;;;;;5024465;28;20552;-62
2023/02/08 03:51:47;;;;;;;21.27;9.07;;;-4.10;59.00;;;;;;5021457;28;20436;-60
2023/02/08 03:54:18;;;;;;;19.00;8.30;;;-4.10;58.80;;;;;;5025844;28;20540;-63
2023/02/08 03:56:45;;;;;;;22.70;9.37;;;-4.10;58.60;;;;;;5024345;28;20440;-60
2023/02/08 03:59:17;;;;;;;15.50;7.37;;;-4.10;58.60;;;;;;5022289;28;20447;-64
2023/02/08 04:01:47;;;;;;;16.13;8.03;;;-4.10;59.40;;;;;;5034011;28;20444;-63
2023/02/08 04:04:16;;;;;;;14.23;8.07;;;-4.10;58.90;;;;;;5023297;28;20480;-60
2023/02/08 04:06:42;;;;;;;16.10;8.67;;;-4.10;58.90;;;;;;5023887;28;20541;-61
2023/02/08 04:09:08;;;;;;;17.00;8.07;;;-4.10;59.10;;;;;;5025444;28;20989;-64
2023/02/08 04:11:33;;;;;;;22.40;7.60;;;-4.10;59.30;;;;;;5024503;28;20181;-62
2023/02/08 04:13:59;;;;;;;14.07;7.73;;;-4.10;59.60;;;;;;5026224;28;20823;-63
2023/02/08 04:16:24;;;;;;;21.50;9.97;;;-4.10;59.70;;;;;;5020654;28;21433;-59
2023/02/08 04:18:50;;;;;;;21.03;9.67;;;-4.10;59.90;;;;;;5024809;28;20257;-61
2023/02/08 04:21:16;;;;;;;20.57;9.70;;;-4.10;59.90;;;;;;5023114;28;20296;-62
2023/02/08 04:23:41;;;;;;;16.73;8.60;;;-4.00;60.20;;;;;;5023594;28;20201;-60
2023/02/08 04:26:08;;;;;;;15.43;8.17;;;-4.00;60.00;;;;;;5023147;28;20207;-60
2023/02/08 04:28:34;;;;;;;17.73;8.23;;;-4.00;60.30;;;;;;5025289;28;20213;-59
2023/02/08 04:31:00;;;;;;;25.03;8.70;;;-4.10;60.10;;;;;;5021456;28;20464;-60
2023/02/08 04:33:25;;;;;;;20.80;8.70;;;-4.10;59.90;;;;;;5023475;28;20519;-60
2023/02/08 04:35:51;;;;;;;16.67;8.60;;;-4.10;59.70;;;;;;5023020;28;20181;-60
2023/02/08 04:38:17;;;;;;;18.77;8.53;;;-4.00;59.70;;;;;;5025720;28;20212;-61
2023/02/08 04:40:42;;;;;;;18.60;8.87;;;-4.00;59.20;;;;;;5024623;28;20782;-61
2023/02/08 04:43:08;;;;;;;23.53;9.27;;;-4.00;59.20;;;;;;5025273;28;20223;-59
2023/02/08 04:45:33;;;;;;;19.93;9.67;;;-4.00;59.40;;;;;;5022077;28;20178;-60
2023/02/08 04:48:03;;;;;;;16.33;8.30;;;-4.00;59.20;;;;;;5023145;28;20282;-61
2023/02/08 04:50:29;;;;;;;20.00;10.40;;;-4.00;59.20;;;;;;5023056;28;20184;-61
2023/02/08 04:52:54;;;;;;;18.20;9.17;;;-4.00;59.20;;;;;;5021237;28;20449;-60
2023/02/08 04:55:20;;;;;;;16.53;8.50;;;-4.00;59.40;;;;;;5022263;28;20517;-60
2023/02/08 04:57:46;;;;;;;19.67;8.90;;;-4.00;59.10;;;;;;5019362;28;20220;-60
2023/02/08 05:00:12;;;;;;;21.20;9.00;;;-4.00;59.30;;;;;;5024942;28;20266;-63
2023/02/08 05:02:38;;;;;;;16.50;9.07;;;-4.00;59.20;;;;;;5014222;28;20192;-60
2023/02/08 05:05:03;;;;;;;16.47;9.13;;;-4.00;59.10;;;;;;5019419;28;20518;-63
2023/02/08 05:07:29;;;;;;;16.90;8.23;;;-3.90;59.20;;;;;;5016894;28;20197;-61
2023/02/08 05:09:55;;;;;;;18.13;8.50;;;-3.90;59.40;;;;;;5018228;28;20682;-62
2023/02/08 05:12:20;;;;;;;18.83;8.83;;;-3.90;59.50;;;;;;5018501;28;20432;-60
2023/02/08 05:14:46;;;;;;;19.43;8.20;;;-3.90;59.30;;;;;;5021594;28;20208;-62
2023/02/08 05:17:12;;;;;;;19.03;8.57;;;-3.90;59.30;;;;;;5020336;28;20185;-59
2023/02/08 05:19:37;;;;;;;19.50;8.67;;;-3.90;59.00;;;;;;5018801;28;20189;-62
2023/02/08 05:22:03;;;;;;;20.60;8.27;;;-3.90;58.90;;;;;;5013152;28;20233;-63
2023/02/08 05:24:28;;;;;;;17.13;7.60;;;-3.90;58.80;;;;;;5010625;28;20892;-62
2023/02/08 05:26:54;;;;;;;20.40;8.27;;;-3.90;59.00;;;;;;5014698;28;20231;-61
2023/02/08 05:29:20;;;;;;;17.30;8.03;;;-3.90;58.80;;;;;;5014252;28;20209;-62
2023/02/08 05:31:45;;;;;;;21.60;8.37;;;-3.90;58.70;;;;;;5017317;28;20695;-59
2023/02/08 05:34:11;;;;;;;18.20;7.83;;;-3.90;58.60;;;;;;5031234;28;20216;-61
2023/02/08 05:36:37;;;;;;;27.20;8.30;;;-3.90;58.70;;;;;;5026723;28;20197;-60
2023/02/08 05:39:03;;;;;;;17.60;8.07;;;-3.90;58.40;;;;;;5022890;28;20182;-62
2023/02/08 05:41:29;;;;;;;15.30;7.30;;;-3.90;58.20;;;;;;5021232;28;20184;-61
2023/02/08 05:43:54;;;;;;;17.77;8.07;;;-3.90;58.10;;;;;;5023674;28;20469;-61
2023/02/08 05:46:20;;;;;;;15.30;7.73;;;-4.00;58.30;;;;;;5019056;28;20186;-61
2023/02/08 05:48:46;;;;;;;16.03;7.50;;;-4.00;58.10;;;;;;5016697;28;20237;-61
2023/02/08 05:51:11;;;;;;;15.00;7.80;;;-4.00;58.10;;;;;;5031114;28;20200;-62
2023/02/08 05:53:37;;;;;;;14.23;7.17;;;-4.00;57.60;;;;;;5029088;28;20207;-61
2023/02/08 05:56:03;;;;;;;13.93;7.37;;;-4.00;58.10;;;;;;5028495;28;20692;-63
2023/02/08 05:58:29;;;;;;;20.70;7.23;;;-3.90;57.40;;;;;;5032977;28;20417;-61
2023/02/08 06:00:55;;;;;;;11.30;5.83;;;-3.90;57.00;;;;;;5029258;28;20449;-61
2023/02/08 06:03:20;;;;;;;12.10;7.10;;;-3.90;57.00;;;;;;5023699;28;20201;-61
2023/02/08 06:05:46;;;;;;;12.80;6.77;;;-3.90;56.90;;;;;;5028142;28;21234;-62
2023/02/08 06:08:12;;;;;;;18.00;7.70;;;-3.90;56.70;;;;;;5030009;28;20204;-60
2023/02/08 06:10:38;;;;;;;12.73;6.20;;;-3.90;56.30;;;;;;5032622;28;20845;-61
2023/02/08 06:13:04;;;;;;;16.73;7.43;;;-3.90;56.40;;;;;;5024317;28;20205;-60
2023/02/08 06:15:30;;;;;;;13.23;6.73;;;-3.90;56.00;;;;;;5023968;28;20492;-61
2023/02/08 06:17:55;;;;;;;14.20;7.30;;;-3.90;55.80;;;;;;5033963;28;20773;-60
2023/02/08 06:20:21;;;;;;;15.50;7.33;;;-3.90;56.00;;;;;;5026868;28;20533;-61
2023/02/08 06:22:47;;;;;;;11.00;7.40;;;-3.90;56.00;;;;;;5034867;28;20296;-62
2023/02/08 06:25:12;;;;;;;17.63;8.40;;;-3.90;56.00;;;;;;5026888;28;20450;-60
2023/02/08 06:27:38;;;;;;;17.57;7.90;;;-3.90;56.00;;;;;;5029638;28;20838;-60
2023/02/08 06:30:04;;;;;;;21.53;8.80;;;-3.90;56.40;;;;;;5025965;28;20182;-61
2023/02/08 06:32:30;;;;;;;16.43;7.97;;;-3.90;56.80;;;;;;5032862;28;20176;-60
2023/02/08 06:34:56;;;;;;;14.80;8.40;;;-3.80;57.00;;;;;;5024076;28;20546;-61
2023/02/08 06:37:21;;;;;;;17.30;8.33;;;-3.80;57.00;;;;;;5026154;28;20437;-62
2023/02/08 06:39:47;;;;;;;17.53;8.40;;;-3.80;57.10;;;;;;5024509;28;20904;-61
2023/02/08 06:42:13;;;;;;;14.23;8.20;;;-3.80;57.60;;;;;;5027257;28;20185;-60
2023/02/08 06:44:38;;;;;;;17.60;7.83;;;-3.80;57.60;;;;;;5026207;28;20950;-61
2023/02/08 06:47:04;;;;;;;18.27;8.93;;;-3.80;57.80;;;;;;5027379;28;22538;-61
2023/02/08 06:49:30;;;;;;;28.40;10.10;;;-3.80;58.00;;;;;;5021861;28;20213;-62
2023/02/08 06:51:55;;;;;;;21.70;11.13;;;-3.80;58.30;;;;;;5028917;28;20190;-60
2023/02/08 06:54:21;;;;;;;30.70;12.80;;;-3.80;58.50;;;;;;5031001;28;20236;-62
2023/02/08 06:56:46;;;;;;;23.23;12.00;;;-3.90;58.40;;;;;;5028562;28;20178;-61
2023/02/08 06:59:12;;;;;;;23.03;11.13;;;-3.90;58.70;;;;;;5017464;28;20204;-57
2023/02/08 07:01:38;;;;;;;22.80;10.50;;;-3.90;58.80;;;;;;5025515;28;20183;-58
2023/02/08 07:04:04;;;;;;;24.90;11.70;;;-3.90;59.10;;;;;;5023525;28;20201;-60
2023/02/08 07:06:29;;;;;;;17.73;10.20;;;-4.00;59.40;;;;;;5028607;28;20190;-60
2023/02/08 07:08:55;;;;;;;26.30;10.73;;;-4.00;59.70;;;;;;5025006;28;20458;-61
2023/02/08 07:11:21;;;;;;;27.77;11.40;;;-4.00;60.30;;;;;;5032743;28;20173;-62
2023/02/08 07:13:49;;;;;;;25.27;12.73;;;-4.00;60.80;;;;;;5029322;28;21968;-63
2023/02/08 07:16:15;;;;;;;26.60;11.87;;;-4.10;60.30;;;;;;5026888;28;20531;-60
2023/02/08 07:18:41;;;;;;;34.57;13.73;;;-4.10;60.30;;;;;;5030544;28;20424;-63
2023/02/08 07:21:06;;;;;;;33.53;14.43;;;-4.10;60.30;;;;;;5028915;28;20439;-60
2023/02/08 07:23:32;;;;;;;38.17;16.00;;;-4.10;61.10;;;;;;5036412;28;20602;-60
2023/02/08 07:26:00;;;;;;;26.57;12.03;;;-4.10;61.30;;;;;;5024620;28;20210;-60
2023/02/08 07:28:26;;;;;;;22.33;12.37;;;-4.10;61.20;;;;;;5028482;28;20209;-62
2023/02/08 07:30:52;;;;;;;25.70;11.77;;;-4.10;61.60;;;;;;5043398;28;20448;-60
2023/02/08 07:33:18;;;;;;;21.10;10.50;;;-4.10;61.70;;;;;;5030069;28;20450;-61
2023/02/08 07:35:43;;;;;;;20.03;9.43;;;-4.10;61.50;;;;;;5023557;28;20548;-59
2023/02/08 07:38:09;;;;;;;21.77;9.70;;;-4.00;61.20;;;;;;5025507;28;20189;-60
2023/02/08 07:40:35;;;;;;;19.23;8.53;;;-3.90;60.70;;;;;;5030027;28;20180;-60
2023/02/08 07:43:00;;;;;;;18.63;10.30;;;-3.90;59.90;;;;;;5022931;28;20582;-61
2023/02/08 07:45:26;;;;;;;15.63;8.33;;;-3.80;60.30;;;;;;5030479;28;20641;-62
2023/02/08 07:47:52;;;;;;;19.20;8.73;;;-3.70;59.40;;;;;;5029435;28;20200;-60
2023/02/08 07:50:17;;;;;;;21.00;9.00;;;-3.60;58.30;;;;;;5029189;28;20212;-60
2023/02/08 07:52:45;;;;;;;18.70;8.87;;;-3.50;57.60;;;;;;5028523;28;20720;-60
2023/02/08 07:55:15;;;;;;;14.00;7.63;;;-3.40;56.70;;;;;;5025643;28;20185;-61
2023/02/08 07:57:45;;;;;;;15.20;8.20;;;-3.30;56.40;;;;;;5022970;28;20426;-60
2023/02/08 08:00:12;;;;;;;16.20;8.43;;;-3.20;55.70;;;;;;5018304;28;20435;-60
2023/02/08 08:02:37;;;;;;;14.53;8.23;;;-3.00;55.40;;;;;;5028369;28;20408;-60
2023/02/08 08:05:03;;;;;;;15.57;8.10;;;-2.90;54.80;;;;;;5029195;28;20477;-60
2023/02/08 08:07:29;;;;;;;17.13;7.93;;;-2.90;53.60;;;;;;5025619;28;20283;-61
2023/02/08 08:09:54;;;;;;;15.77;7.83;;;-2.80;53.30;;;;;;5023580;28;20178;-61
2023/02/08 08:12:20;;;;;;;11.50;7.13;;;-2.70;52.80;;;;;;5025854;28;20177;-61
2023/02/08 08:14:46;;;;;;;16.40;6.80;;;-2.60;52.70;;;;;;5029994;28;20219;-60
2023/02/08 08:17:12;;;;;;;15.80;7.53;;;-2.60;52.10;;;;;;5022244;28;20768;-60
2023/02/08 08:19:37;;;;;;;15.03;6.90;;;-2.50;52.00;;;;;;5028962;28;20428;-61
2023/02/08 08:22:03;;;;;;;14.63;6.43;;;-2.40;51.40;;;;;;5029705;28;20185;-61
2023/02/08 08:24:30;;;;;;;17.63;6.00;;;-2.40;51.00;;;;;;5029761;28;20676;-60
2023/02/08 08:26:56;;;;;;;10.43;5.57;;;-2.30;50.80;;;;;;5027950;28;20181;-61
2023/02/08 08:29:22;;;;;;;10.80;6.20;;;-2.20;50.30;;;;;;5025454;28;20845;-61
2023/02/08 08:31:48;;;;;;;10.10;5.87;;;-2.20;49.60;;;;;;5017564;28;20933;-61
2023/02/08 08:34:14;;;;;;;9.10;5.43;;;-2.00;49.50;;;;;;5025984;28;20471;-60
2023/02/08 08:36:39;;;;;;;12.03;5.90;;;-2.00;49.50;;;;;;5027945;28;20432;-60
2023/02/08 08:39:05;;;;;;;12.00;5.30;;;-1.90;49.40;;;;;;5029539;28;20181;-60
2023/02/08 08:41:30;;;;;;;9.70;5.50;;;-1.80;48.90;;;;;;5023869;28;20203;-61
2023/02/08 08:43:56;;;;;;;8.10;5.57;;;-1.70;48.80;;;;;;5026079;28;20212;-61
2023/02/08 08:46:22;;;;;;;10.60;5.63;;;-1.70;48.20;;;;;;5024683;28;20180;-61
2023/02/08 08:48:48;;;;;;;9.70;5.90;;;-1.60;48.00;;;;;;5028913;28;20244;-61
2023/02/08 08:51:14;;;;;;;10.33;5.50;;;-1.50;48.30;;;;;;5033268;28;20641;-60
2023/02/08 08:53:39;;;;;;;9.60;5.90;;;-1.40;49.00;;;;;;5021689;28;20456;-60
2023/02/08 08:56:05;;;;;;;9.00;5.43;;;-1.40;47.90;;;;;;5022643;28;20563;-60
2023/02/08 08:58:31;;;;;;;11.17;6.00;;;-1.30;48.00;;;;;;5028396;28;20215;-60
2023/02/08 09:00:58;;;;;;;11.70;5.80;;;-1.20;47.60;;;;;;5027840;28;20662;-60
2023/02/08 09:03:25;;;;;;;19.77;5.80;;;-1.20;47.50;;;;;;5028077;28;20193;-60
2023/02/08 09:05:51;;;;;;;11.10;5.07;;;-1.10;47.70;;;;;;5030057;28;20440;-60
2023/02/08 09:08:16;;;;;;;8.83;6.00;;;-1.10;47.90;;;;;;5021566;28;20476;-60
2023/02/08 09:10:42;;;;;;;14.10;5.70;;;-1.00;48.20;;;;;;5027099;28;20168;-60
2023/02/08 09:13:08;;;;;;;10.50;5.10;;;-0.90;47.60;;;;;;5032290;28;20289;-60
2023/02/08 09:15:38;;;;;;;9.90;5.83;;;-0.80;47.30;;;;;;5029261;28;20173;-60
2023/02/08 09:18:04;;;;;;;15.40;6.10;;;-0.70;47.20;;;;;;5029873;28;21023;-62
2023/02/08 09:20:29;;;;;;;10.40;5.20;;;-0.70;46.90;;;;;;5029535;28;20446;-61
2023/02/08 09:22:55;;;;;;;14.07;5.90;;;-0.60;46.80;;;;;;5030462;28;20200;-61
2023/02/08 09:25:21;;;;;;;14.30;5.83;;;-0.50;46.50;;;;;;5030201;28;20233;-61
2023/02/08 09:27:47;;;;;;;11.80;5.60;;;-0.40;46.60;;;;;;5024355;28;20456;-61
2023/02/08 09:30:13;;;;;;;11.40;6.00;;;-0.40;46.10;;;;;;5027506;28;20919;-61
2023/02/08 09:32:39;;;;;;;10.60;6.20;;;-0.30;46.00;;;;;;5029286;28;20200;-61
2023/02/08 09:35:05;;;;;;;16.97;6.20;;;-0.20;46.00;;;;;;5032007;28;20197;-61
2023/02/08 09:37:31;;;;;;;11.60;5.70;;;-0.20;46.10;;;;;;5027283;28;20527;-61
2023/02/08 09:39:58;;;;;;;13.13;6.20;;;-0.10;45.90;;;;;;5022416;28;20527;-60
2023/02/08 09:42:42;;;;;;;10.20;5.30;;;0.00;45.70;;;;;;5034776;28;20443;-61
2023/02/08 09:45:36;;;;;;;10.33;6.03;;;0.10;45.40;;;;;;5032091;28;20806;-62
2023/02/08 09:48:26;;;;;;;16.17;5.27;;;0.10;45.80;;;;;;5023765;28;20456;-61
2023/02/08 09:50:59;;;;;;;14.40;5.50;;;0.30;45.30;;;;;;5031051;28;20437;-60
2023/02/08 09:53:40;;;;;;;11.00;5.50;;;0.30;45.10;;;;;;5023501;28;20485;-59
2023/02/08 09:56:11;;;;;;;11.50;5.30;;;0.40;45.00;;;;;;5021654;28;20440;-61
2023/02/08 09:58:43;;;;;;;12.70;6.30;;;0.50;44.90;;;;;;5028971;28;20979;-59
2023/02/08 10:01:26;;;;;;;11.40;5.40;;;0.60;45.00;;;;;;5029456;28;20836;-61
2023/02/08 10:04:02;;;;;;;8.53;4.83;;;0.70;45.00;;;;;;5030530;28;20540;-62
2023/02/08 10:06:29;;;;;;;9.87;5.73;;;0.80;44.70;;;;;;5025545;28;20827;-60
2023/02/08 10:08:57;;;;;;;11.40;6.13;;;0.90;44.10;;;;;;5032804;28;20467;-60
2023/02/08 10:11:25;;;;;;;9.37;5.50;;;1.00;44.50;;;;;;5023097;28;20441;-61
2023/02/08 10:14:03;;;;;;;11.30;6.50;;;1.00;43.20;;;;;;5033261;28;20448;-61
2023/02/08 10:16:50;;;;;;;11.03;5.77;;;0.90;42.70;;;;;;5035067;28;20463;-60
2023/02/08 10:20:10;;;;;;;10.97;5.90;;;1.00;42.70;;;;;;5028109;28;20429;-60
2023/02/08 10:22:53;;;;;;;11.80;5.57;;;1.00;43.00;;;;;;5015545;28;20442;-60
2023/02/08 10:25:29;;;;;;;11.90;6.17;;;1.10;43.10;;;;;;5035078;28;20437;-61
2023/02/08 10:28:12;;;;;;;12.00;6.70;;;1.20;43.10;;;;;;5024667;28;20469;-61
2023/02/08 10:31:20;;;;;;;16.40;6.17;;;1.20;42.40;;;;;;5035444;28;20436;-61
2023/02/08 10:33:48;;;;;;;14.67;6.67;;;1.30;42.50;;;;;;5031255;28;20475;-60
2023/02/08 10:36:19;;;;;;;11.93;6.30;;;1.30;42.30;;;;;;5031475;28;20471;-60
2023/02/08 10:38:48;;;;;;;15.97;5.90;;;1.40;42.40;;;;;;5034113;28;20993;-61
2023/02/08 10:41:20;;;;;;;12.30;6.17;;;1.40;42.40;;;;;;5031469;28;20431;-60
2023/02/08 10:44:12;;;;;;;12.53;6.83;;;1.50;42.40;;;;;;5031716;28;20519;-60
2023/02/08 10:46:46;;;;;;;11.63;5.70;;;1.50;42.20;;;;;;5043870;28;20436;-60
2023/02/08 10:49:24;;;;;;;9.93;5.60;;;1.60;42.30;;;;;;5031403;28;21015;-61
2023/02/08 10:51:50;;;;;;;9.90;6.10;;;1.70;42.40;;;;;;5028133;28;20449;-60
2023/02/08 10:54:18;;;;;;;10.40;5.30;;;1.70;42.00;;;;;;5027301;28;20568;-61
2023/02/08 10:57:05;;;;;;;14.00;6.10;;;1.80;41.80;;;;;;5020525;28;20438;-61
2023/02/08 10:59:45;;;;;;;10.97;5.97;;;1.80;41.70;;;;;;5022244;28;20515;-60
2023/02/08 11:02:22;;;;;;;12.20;6.10;;;1.90;41.50;;;;;;5019767;28;20457;-60
2023/02/08 11:04:58;;;;;;;8.10;5.20;;;2.00;41.80;;;;;;5029485;28;20483;-60
2023/02/08 11:07:24;;;;;;;14.30;6.50;;;2.10;41.80;;;;;;5028950;28;20404;-62
2023/02/08 11:09:50;;;;;;;9.43;6.07;;;2.10;41.00;;;;;;5022932;28;20425;-60
2023/02/08 11:12:20;;;;;;;10.03;5.60;;;2.10;40.90;;;;;;5022908;28;20207;-54
2023/02/08 11:14:52;;;;;;;13.87;6.07;;;2.20;40.60;;;;;;5029140;28;20249;-60
2023/02/08 11:17:29;;;;;;;15.27;6.20;;;2.20;40.90;;;;;;5024621;28;20965;-62
2023/02/08 11:19:55;;;;;;;13.33;6.23;;;2.30;40.80;;;;;;5022975;28;20433;-61
2023/02/08 11:22:23;;;;;;;22.00;9.03;;;2.30;40.80;;;;;;5027391;28;20441;-62
2023/02/08 11:24:56;;;;;;;12.70;6.60;;;2.30;41.30;;;;;;5025925;28;20504;-61
2023/02/08 11:27:25;;;;;;;16.00;6.70;;;2.40;41.90;;;;;;5029255;28;20405;-61
2023/02/08 11:30:09;;;;;;;12.90;5.67;;;2.60;42.10;;;;;;5025662;28;20966;-62
2023/02/08 11:32:35;;;;;;;9.97;5.60;;;2.70;41.40;;;;;;5024601;28;20433;-61
2023/02/08 11:35:20;;;;;;;17.23;6.80;;;2.90;41.50;;;;;;5026056;28;20560;-63
2023/02/08 11:37:48;;;;;;;13.20;6.30;;;3.00;41.00;;;;;;5026688;28;20438;-61
2023/02/08 11:40:27;;;;;;;11.70;6.60;;;3.30;41.60;;;;;;5028365;28;20553;-61
2023/02/08 11:42:53;;;;;;;12.00;6.73;;;3.40;41.10;;;;;;5021444;28;20476;-60
2023/02/08 11:45:28;;;;;;;12.53;6.83;;;3.50;41.00;;;;;;5030703;28;21336;-59
2023/02/08 11:47:54;;;;;;;11.63;6.50;;;3.50;40.90;;;;;;5020597;28;20996;-61
2023/02/08 11:50:29;;;;;;;18.40;7.90;;;3.60;40.60;;;;;;5037805;28;20449;-63
2023/02/08 11:52:59;;;;;;;11.30;6.77;;;3.70;40.10;;;;;;5025632;28;20598;-62
2023/02/08 11:55:28;;;;;;;10.00;6.20;;;3.80;39.80;;;;;;5026689;28;20422;-61
2023/02/08 11:57:58;;;;;;;12.60;6.97;;;3.90;39.60;;;;;;5024013;28;20792;-62
2023/02/08 12:00:27;;;;;;;11.90;6.83;;;4.10;39.20;;;;;;5028301;28;20924;-62
2023/02/08 12:03:00;;;;;;;11.63;6.20;;;4.20;39.00;;;;;;5018375;28;20549;-62
2023/02/08 12:05:36;;;;;;;13.43;7.50;;;4.40;39.00;;;;;;5021919;28;20548;-62
2023/02/08 12:08:07;;;;;;;14.07;7.87;;;4.50;38.90;;;;;;5025478;28;20453;-61
2023/02/08 12:10:55;;;;;;;12.53;7.50;;;4.70;38.80;;;;;;5025790;28;20491;-63
2023/02/08 12:13:51;;;;;;;9.53;6.00;;;5.10;38.40;;;;;;5040999;28;20446;-62
2023/02/08 12:16:35;;;;;;;10.83;6.13;;;5.50;38.30;;;;;;5026343;28;20483;-63
2023/02/08 12:19:23;;;;;;;14.43;7.57;;;5.80;37.50;;;;;;5025639;28;20445;-62
2023/02/08 12:22:10;;;;;;;13.90;7.10;;;6.00;36.70;;;;;;5018097;28;20942;-61
2023/02/08 12:24:51;;;;;;;13.73;7.83;;;6.20;36.80;;;;;;5025395;28;20446;-62
2023/02/08 12:27:49;;;;;;;10.90;7.03;;;6.40;36.70;;;;;;5026997;28;21004;-62
2023/02/08 12:30:34;;;;;;;13.53;8.30;;;6.40;36.00;;;;;;5001795;28;20444;-63
2023/02/08 12:33:08;;;;;;;16.00;8.63;;;6.50;36.30;;;;;;5017617;28;20501;-63
2023/02/08 12:35:55;;;;;;;17.50;8.63;;;6.80;36.00;;;;;;5027201;28;20475;-63
2023/02/08 12:41:38;;;;;;;14.30;8.20;;;7.20;35.10;;;;;;5026090;28;20394;-63
2023/02/08 12:44:16;;;;;;;13.63;8.53;;;7.50;34.90;;;;;;5018638;28;20469;-62
2023/02/08 12:47:01;;;;;;;16.20;8.60;;;7.80;34.80;;;;;;5032400;28;20414;-64
2023/02/08 12:49:51;;;;;;;15.67;9.87;;;8.30;34.20;;;;;;5022919;28;20463;-63
2023/02/08 12:52:44;;;;;;;13.83;8.80;;;8.90;33.70;;;;;;5019934;28;20437;-62
2023/02/08 12:55:29;;;;;;;17.40;9.67;;;9.40;32.70;;;;;;5035244;28;20419;-61
2023/02/08 12:58:05;;;;;;;13.37;8.80;;;9.80;31.80;;;;;;5029522;28;20430;-62
2023/02/08 13:00:33;;;;;;;13.63;9.90;;;9.90;31.10;;;;;;5013368;28;20953;-62